Time;durP1;ratioP1;P1;durP2;ratioP2;P2;SDS_P1;SDS_P2;PMS_P1;PMS_P2;Temp;Humidity;BMP_temperature;BMP_pressure;BME280_temperature;BME280_humidity;BME280_pressure;Samples;Min_cycle;Max_cycle;Signal;HPM_P1;HPM_P2
2020/12/14 07:03:28;;;;;;;49.78;20.92;;;;;;;;;;5088359;27;20418;-73
2020/12/14 07:05:57;;;;;;;52.92;21.92;;;;;;;;;;5087261;28;20051;-74
2020/12/14 07:08:27;;;;;;;53.28;23.05;;;;;;;;;;5087874;28;20024;-71
2020/12/14 07:11:08;;;;;;;48.53;21.70;;;;;;;;;;5087720;28;20020;-71
2020/12/14 07:13:33;;;;;;;48.17;21.50;;;;;;;;;;5085976;28;20095;-71
2020/12/14 07:16:07;;;;;;;49.65;22.67;;;;;;;;;;5089982;28;20096;-72
2020/12/14 07:18:32;;;;;;;51.88;22.10;;;;;;;;;;5079849;28;20022;-68
2020/12/14 07:21:06;;;;;;;48.08;22.75;;;;;;;;;;5102849;28;20095;-70
2020/12/14 07:23:33;;;;;;;49.47;22.10;;;;;;;;;;5094835;28;20028;-69
2020/12/14 07:25:59;;;;;;;43.92;21.23;;;;;;;;;;5095381;28;20027;-69
2020/12/14 07:28:34;;;;;;;42.55;20.77;;;;;;;;;;5085206;28;20008;-71
2020/12/14 07:31:04;;;;;;;50.47;21.35;;;;;;;;;;5075444;28;20354;-69
2020/12/14 07:33:29;;;;;;;96.43;25.02;;;;;;;;;;5099065;28;20012;-69
2020/12/14 07:36:04;;;;;;;523.08;63.88;;;;;;;;;;5099408;28;20375;-69
2020/12/14 07:38:29;;;;;;;56.40;21.27;;;;;;;;;;5091525;28;20468;-70
2020/12/14 07:41:04;;;;;;;53.72;21.45;;;;;;;;;;5103173;28;20026;-69
2020/12/14 07:43:29;;;;;;;61.75;21.92;;;;;;;;;;5094197;28;20019;-70
2020/12/14 07:45:54;;;;;;;59.10;23.33;;;;;;;;;;5097152;28;20024;-68
2020/12/14 07:48:20;;;;;;;48.72;20.77;;;;;;;;;;5101918;28;20498;-69
2020/12/14 07:50:45;;;;;;;43.10;21.38;;;;;;;;;;5091474;28;20103;-69
2020/12/14 07:53:10;;;;;;;51.97;22.00;;;;;;;;;;5103178;28;20016;-71
2020/12/14 07:55:38;;;;;;;39.17;20.08;;;;;;;;;;5086167;28;20020;-69
2020/12/14 07:58:03;;;;;;;42.00;19.45;;;;;;;;;;5100412;28;20019;-68
2020/12/14 08:00:29;;;;;;;45.72;21.27;;;;;;;;;;5090736;28;20384;-71
2020/12/14 08:03:01;;;;;;;45.28;21.02;;;;;;;;;;5103058;28;20049;-70
2020/12/14 08:05:27;;;;;;;47.60;21.75;;;;;;;;;;5095588;28;20053;-69
2020/12/14 08:07:53;;;;;;;45.80;21.55;;;;;;;;;;5096877;28;20016;-68
2020/12/14 08:10:21;;;;;;;46.00;22.13;;;;;;;;;;5101496;28;20081;-68
2020/12/14 08:12:47;;;;;;;44.58;21.90;;;;;;;;;;5087843;28;20021;-68
2020/12/14 08:15:14;;;;;;;44.72;22.35;;;;;;;;;;5089028;28;20108;-68
2020/12/14 08:17:40;;;;;;;51.72;24.45;;;;;;;;;;5081994;28;20020;-69
2020/12/14 08:20:22;;;;;;;48.25;22.33;;;;;;;;;;5081552;28;20021;-69
2020/12/14 08:22:48;;;;;;;52.63;23.75;;;;;;;;;;5088678;28;20036;-68
2020/12/14 08:25:18;;;;;;;49.38;23.52;;;;;;;;;;5061384;28;20016;-68
2020/12/14 08:27:48;;;;;;;44.28;22.67;;;;;;;;;;5083481;28;20028;-68
2020/12/14 08:30:15;;;;;;;48.25;23.52;;;;;;;;;;5069354;28;20020;-69
2020/12/14 08:32:41;;;;;;;50.38;23.63;;;;;;;;;;5075850;28;20048;-68
2020/12/14 08:35:24;;;;;;;56.50;23.25;;;;;;;;;;5089805;28;20055;-69
2020/12/14 08:37:50;;;;;;;49.08;22.73;;;;;;;;;;5083609;28;20537;-70
2020/12/14 08:40:15;;;;;;;52.40;23.30;;;;;;;;;;5078583;28;20103;-69
2020/12/14 08:42:41;;;;;;;47.47;22.55;;;;;;;;;;5072156;28;20123;-69
2020/12/14 08:45:10;;;;;;;53.55;22.27;;;;;;;;;;5059285;28;20027;-69
2020/12/14 08:47:37;;;;;;;47.42;22.42;;;;;;;;;;5084009;28;20040;-69
2020/12/14 08:50:03;;;;;;;40.38;20.05;;;;;;;;;;5085629;28;20015;-70
2020/12/14 08:52:29;;;;;;;44.47;20.67;;;;;;;;;;5075822;28;20139;-71
2020/12/14 08:54:55;;;;;;;41.75;21.35;;;;;;;;;;5088691;28;20099;-70
2020/12/14 08:57:24;;;;;;;39.55;19.90;;;;;;;;;;5078443;28;20024;-70
2020/12/14 08:59:57;;;;;;;41.65;17.95;;;;;;;;;;5080691;28;20045;-70
2020/12/14 09:02:24;;;;;;;37.22;17.60;;;;;;;;;;5056224;28;20484;-71
2020/12/14 09:04:53;;;;;;;35.22;17.65;;;;;;;;;;5072773;28;20019;-70
2020/12/14 09:07:28;;;;;;;39.60;17.67;;;;;;;;;;5054782;28;20051;-70
2020/12/14 09:09:55;;;;;;;37.83;17.08;;;;;;;;;;5073550;28;20012;-69
2020/12/14 09:12:20;;;;;;;30.85;15.02;;;;;;;;;;5078213;28;20025;-70
2020/12/14 09:14:46;;;;;;;26.00;12.68;;;;;;;;;;5080812;28;20035;-68
2020/12/14 09:17:13;;;;;;;26.05;13.52;;;;;;;;;;5079868;28;20043;-68
2020/12/14 09:19:38;;;;;;;31.27;13.35;;;;;;;;;;5074002;28;20040;-69
2020/12/14 09:22:04;;;;;;;31.55;13.88;;;;;;;;;;5073028;28;20032;-67
2020/12/14 09:24:31;;;;;;;27.80;14.25;;;;;;;;;;5075049;28;20377;-67
2020/12/14 09:27:06;;;;;;;28.27;13.00;;;;;;;;;;5077989;28;20023;-68
2020/12/14 09:29:32;;;;;;;32.38;15.18;;;;;;;;;;5066697;28;20028;-68
2020/12/14 09:31:58;;;;;;;30.33;13.73;;;;;;;;;;5084341;28;20358;-67
2020/12/14 09:34:24;;;;;;;28.25;13.85;;;;;;;;;;5087426;28;20050;-67
2020/12/14 09:36:52;;;;;;;31.92;14.45;;;;;;;;;;5074813;28;20066;-68
2020/12/14 09:39:18;;;;;;;33.17;15.05;;;;;;;;;;5066579;28;20025;-70
2020/12/14 09:41:43;;;;;;;31.23;14.65;;;;;;;;;;5054341;28;20036;-68
2020/12/14 09:44:09;;;;;;;33.58;16.45;;;;;;;;;;5072324;28;20025;-68
2020/12/14 09:46:34;;;;;;;33.38;16.15;;;;;;;;;;5055586;28;20480;-69
2020/12/14 09:49:00;;;;;;;32.63;16.38;;;;;;;;;;5072574;28;20015;-69
2020/12/14 09:51:26;;;;;;;37.33;17.38;;;;;;;;;;5073372;28;20009;-69
2020/12/14 09:53:51;;;;;;;37.65;17.80;;;;;;;;;;5071957;28;20429;-68
2020/12/14 09:56:17;;;;;;;27.48;14.55;;;;;;;;;;5072575;28;20048;-68
2020/12/14 09:58:42;;;;;;;27.30;13.80;;;;;;;;;;5073411;28;20013;-69
2020/12/14 10:01:08;;;;;;;29.58;13.43;;;;;;;;;;5072045;28;20016;-69
2020/12/14 10:03:33;;;;;;;29.38;14.57;;;;;;;;;;5070786;28;20402;-69
2020/12/14 10:05:59;;;;;;;29.55;13.32;;;;;;;;;;5055108;28;20009;-69
2020/12/14 10:08:24;;;;;;;28.35;15.15;;;;;;;;;;5055988;28;20489;-69
2020/12/14 10:10:51;;;;;;;29.83;14.35;;;;;;;;;;5085705;28;20023;-69
2020/12/14 10:13:17;;;;;;;27.48;13.82;;;;;;;;;;5085285;28;20012;-70
2020/12/14 10:15:42;;;;;;;27.33;14.00;;;;;;;;;;5073285;28;20074;-70
2020/12/14 10:18:08;;;;;;;32.38;14.40;;;;;;;;;;5082146;28;20028;-70
2020/12/14 10:20:33;;;;;;;28.75;13.60;;;;;;;;;;5074378;28;20027;-70
2020/12/14 10:22:59;;;;;;;30.52;13.48;;;;;;;;;;5069566;28;20484;-69
2020/12/14 10:25:24;;;;;;;30.38;14.32;;;;;;;;;;5078502;28;20018;-69
2020/12/14 10:27:50;;;;;;;32.45;14.80;;;;;;;;;;5081527;28;20377;-68
2020/12/14 10:30:16;;;;;;;29.90;14.43;;;;;;;;;;5075536;28;20056;-70
2020/12/14 10:32:41;;;;;;;35.40;16.42;;;;;;;;;;5074289;28;20043;-70
2020/12/14 10:35:06;;;;;;;38.47;17.35;;;;;;;;;;5085919;28;20030;-69
2020/12/14 10:37:32;;;;;;;36.60;17.90;;;;;;;;;;5078660;28;20026;-70
2020/12/14 10:39:57;;;;;;;33.70;16.27;;;;;;;;;;5061749;28;20433;-71
2020/12/14 10:42:23;;;;;;;35.22;15.63;;;;;;;;;;5086714;28;20067;-70
2020/12/14 10:44:48;;;;;;;39.17;19.75;;;;;;;;;;5056408;28;20020;-69
2020/12/14 10:47:14;;;;;;;46.95;20.35;;;;;;;;;;5075904;28;20099;-69
2020/12/14 10:49:39;;;;;;;41.60;18.02;;;;;;;;;;5071287;28;20045;-71
2020/12/14 10:52:04;;;;;;;37.65;17.88;;;;;;;;;;5071503;28;20066;-70
2020/12/14 10:54:30;;;;;;;36.63;17.85;;;;;;;;;;5072816;28;20021;-72
2020/12/14 10:56:56;;;;;;;39.20;19.20;;;;;;;;;;5069650;28;20024;-71
2020/12/14 10:59:22;;;;;;;47.53;22.77;;;;;;;;;;5076077;28;20591;-71
2020/12/14 11:01:50;;;;;;;47.22;23.40;;;;;;;;;;5080791;28;20123;-71
2020/12/14 11:04:15;;;;;;;48.00;23.52;;;;;;;;;;5071080;28;20056;-71
2020/12/14 11:40:21;;;;;;;70.28;29.20;;;;;;;;;;5104270;28;20379;-72
2020/12/14 11:42:47;;;;;;;70.28;29.35;;;;;;;;;;5090569;28;20024;-73
2020/12/14 11:45:12;;;;;;;70.32;30.40;;;;;;;;;;5103064;28;20031;-72
2020/12/14 11:47:38;;;;;;;72.40;32.58;;;;;;;;;;5066864;28;20013;-72
2020/12/14 11:50:04;;;;;;;70.60;32.10;;;;;;;;;;5088587;28;20019;-72
2020/12/14 11:52:29;;;;;;;66.25;30.17;;;;;;;;;;5104982;28;20047;-72
2020/12/14 11:54:55;;;;;;;62.67;28.95;;;;;;;;;;5089639;28;20047;-71
2020/12/14 11:57:20;;;;;;;68.72;28.38;;;;;;;;;;5101961;28;20036;-73
2020/12/14 11:59:46;;;;;;;67.60;30.95;;;;;;;;;;5098612;28;20460;-73
2020/12/14 12:02:15;;;;;;;69.50;30.98;;;;;;;;;;5093831;28;20043;-72
2020/12/14 12:04:40;;;;;;;69.35;30.30;;;;;;;;;;5104803;28;20026;-71
2020/12/14 12:07:06;;;;;;;61.10;28.08;;;;;;;;;;5093063;28;20099;-70
2020/12/14 12:09:33;;;;;;;67.65;30.48;;;;;;;;;;5100061;28;20465;-71
2020/12/14 12:11:58;;;;;;;65.95;30.13;;;;;;;;;;5099611;28;20507;-70
2020/12/14 12:14:23;;;;;;;58.90;27.98;;;;;;;;;;5075643;28;20107;-70
2020/12/14 12:16:49;;;;;;;52.80;25.08;;;;;;;;;;5103388;28;20365;-70
2020/12/14 12:19:17;;;;;;;58.35;26.10;;;;;;;;;;5074794;28;20090;-69
2020/12/14 12:21:46;;;;;;;51.20;24.67;;;;;;;;;;5098567;28;20036;-73
2020/12/14 12:24:11;;;;;;;49.72;22.05;;;;;;;;;;5101314;28;20023;-73
2020/12/14 12:26:36;;;;;;;51.45;24.52;;;;;;;;;;5090232;28;20153;-71
2020/12/14 12:29:02;;;;;;;52.65;24.63;;;;;;;;;;5102972;28;20034;-73
2020/12/14 12:31:27;;;;;;;52.17;24.25;;;;;;;;;;5095065;28;20459;-72
2020/12/14 12:33:53;;;;;;;70.32;32.03;;;;;;;;;;5099715;28;20016;-72
2020/12/14 12:36:20;;;;;;;51.50;24.63;;;;;;;;;;5091865;28;20074;-70
2020/12/14 12:38:46;;;;;;;53.30;24.35;;;;;;;;;;5103778;28;20040;-71
2020/12/14 12:41:11;;;;;;;50.97;25.55;;;;;;;;;;5093127;28;20031;-71
2020/12/14 12:43:36;;;;;;;73.32;32.00;;;;;;;;;;5099670;28;20066;-71
2020/12/14 12:46:02;;;;;;;45.92;21.92;;;;;;;;;;5098621;28;20491;-71
2020/12/14 12:48:27;;;;;;;45.28;21.65;;;;;;;;;;5073696;28;20019;-71
2020/12/14 12:50:53;;;;;;;46.72;21.70;;;;;;;;;;5093458;28;20023;-72
2020/12/14 12:53:21;;;;;;;49.50;24.30;;;;;;;;;;5062019;28;20481;-76
2020/12/14 12:55:46;;;;;;;45.97;23.55;;;;;;;;;;5083280;28;20008;-67
2020/12/14 12:58:12;;;;;;;51.88;24.52;;;;;;;;;;5086860;28;20107;-67
2020/12/14 13:00:37;;;;;;;55.90;25.83;;;;;;;;;;5077361;28;20103;-70
2020/12/14 13:03:03;;;;;;;62.83;27.00;;;;;;;;;;5089417;28;20015;-70
2020/12/14 13:05:28;;;;;;;54.75;26.35;;;;;;;;;;5079329;28;20028;-70
2020/12/14 13:07:53;;;;;;;60.97;26.63;;;;;;;;;;5082680;28;20086;-70
2020/12/14 13:10:19;;;;;;;65.70;30.15;;;;;;;;;;5087633;28;20008;-70
2020/12/14 13:12:44;;;;;;;58.03;27.40;;;;;;;;;;5075629;28;20082;-70
2020/12/14 13:15:10;;;;;;;68.63;30.27;;;;;;;;;;5087674;28;20027;-71
2020/12/14 13:17:35;;;;;;;68.50;31.42;;;;;;;;;;5081479;28;20020;-71
2020/12/14 13:20:00;;;;;;;69.60;31.88;;;;;;;;;;5079772;28;20033;-70
2020/12/14 13:22:27;;;;;;;66.97;28.80;;;;;;;;;;5089023;28;20012;-69
2020/12/14 13:24:52;;;;;;;67.30;30.33;;;;;;;;;;5076813;28;20024;-69
2020/12/14 13:27:18;;;;;;;75.65;30.75;;;;;;;;;;5087023;28;20453;-70
2020/12/14 13:29:44;;;;;;;73.70;31.73;;;;;;;;;;5083392;28;20012;-69
2020/12/14 13:32:10;;;;;;;72.78;32.22;;;;;;;;;;5085160;28;20032;-69
2020/12/14 13:34:36;;;;;;;134.07;55.90;;;;;;;;;;5090844;28;20031;-69
2020/12/14 13:37:02;;;;;;;72.28;32.20;;;;;;;;;;5059188;28;20016;-69
2020/12/14 13:39:29;;;;;;;63.63;28.13;;;;;;;;;;5083338;28;20052;-69
2020/12/14 13:41:55;;;;;;;64.60;27.60;;;;;;;;;;5082182;28;20430;-69
2020/12/14 13:44:20;;;;;;;63.38;28.67;;;;;;;;;;5077397;28;20032;-70
2020/12/14 13:46:46;;;;;;;67.25;29.80;;;;;;;;;;5070606;28;20020;-69
2020/12/14 13:49:12;;;;;;;74.90;31.15;;;;;;;;;;5077800;28;20016;-70
2020/12/14 13:51:38;;;;;;;63.90;30.90;;;;;;;;;;5083176;28;20029;-69
2020/12/14 13:54:05;;;;;;;75.30;30.70;;;;;;;;;;5084293;28;20020;-69
2020/12/14 13:56:30;;;;;;;68.28;29.95;;;;;;;;;;5076246;28;20016;-70
2020/12/14 13:58:56;;;;;;;75.78;31.48;;;;;;;;;;5089703;28;20545;-70
2020/12/14 14:01:21;;;;;;;71.50;30.77;;;;;;;;;;5075979;28;20031;-69
2020/12/14 14:03:47;;;;;;;74.20;31.30;;;;;;;;;;5082723;28;20020;-70
2020/12/14 14:06:12;;;;;;;68.70;30.50;;;;;;;;;;5085444;28;20751;-70
2020/12/14 14:08:39;;;;;;;70.38;31.17;;;;;;;;;;5074412;28;20388;-70
2020/12/14 14:11:04;;;;;;;65.82;29.27;;;;;;;;;;5070693;28;20043;-70
2020/12/14 14:13:29;;;;;;;68.63;30.42;;;;;;;;;;5079763;28;20016;-71
2020/12/14 14:15:55;;;;;;;64.97;28.58;;;;;;;;;;5076583;28;20033;-71
2020/12/14 14:18:21;;;;;;;65.40;27.55;;;;;;;;;;5063920;28;20032;-70
2020/12/14 14:20:49;;;;;;;71.60;30.77;;;;;;;;;;5066638;28;20444;-71
2020/12/14 14:23:16;;;;;;;72.93;31.27;;;;;;;;;;5087165;28;20016;-70
2020/12/14 14:25:41;;;;;;;78.95;31.45;;;;;;;;;;5082200;28;20256;-70
2020/12/14 14:28:07;;;;;;;70.75;31.05;;;;;;;;;;5079109;28;20024;-73
2020/12/14 14:30:32;;;;;;;67.82;29.50;;;;;;;;;;5087678;28;20098;-69
2020/12/14 14:32:58;;;;;;;61.47;28.73;;;;;;;;;;5074469;28;20012;-69
2020/12/14 14:35:23;;;;;;;66.75;28.63;;;;;;;;;;5084248;28;20021;-68
2020/12/14 14:37:49;;;;;;;61.67;27.88;;;;;;;;;;5064913;28;20535;-70
2020/12/14 14:40:14;;;;;;;61.40;26.95;;;;;;;;;;5079222;28;20492;-69
2020/12/14 14:42:40;;;;;;;64.47;27.75;;;;;;;;;;5089156;28;20024;-68
2020/12/14 14:45:06;;;;;;;60.47;27.40;;;;;;;;;;5075112;28;20015;-68
2020/12/14 14:47:32;;;;;;;68.07;30.38;;;;;;;;;;5081837;28;20575;-70
2020/12/14 14:49:58;;;;;;;63.45;28.35;;;;;;;;;;5082732;28;20025;-70
2020/12/14 14:52:23;;;;;;;71.78;30.80;;;;;;;;;;5077185;28;20027;-70
2020/12/14 14:54:49;;;;;;;71.03;32.40;;;;;;;;;;5088157;28;20020;-69
2020/12/14 14:57:15;;;;;;;80.70;33.17;;;;;;;;;;5076719;28;20050;-67
2020/12/14 14:59:40;;;;;;;78.18;35.50;;;;;;;;;;5064883;28;20400;-65
2020/12/14 15:02:07;;;;;;;81.30;32.67;;;;;;;;;;5084483;28;20035;-75
2020/12/14 15:04:32;;;;;;;85.90;35.15;;;;;;;;;;5057273;28;20249;-75
2020/12/14 15:06:58;;;;;;;79.07;34.83;;;;;;;;;;5088764;28;20020;-76
2020/12/14 15:09:23;;;;;;;81.55;36.58;;;;;;;;;;5076870;28;20459;-77
2020/12/14 15:11:48;;;;;;;94.32;38.72;;;;;;;;;;5081457;28;20012;-76
2020/12/14 15:14:14;;;;;;;98.40;40.17;;;;;;;;;;5084252;28;20016;-76
2020/12/14 15:16:40;;;;;;;159.95;64.28;;;;;;;;;;5056414;28;20055;-77
2020/12/14 15:19:06;;;;;;;108.47;43.97;;;;;;;;;;5086606;28;20016;-77
2020/12/14 15:21:33;;;;;;;104.57;43.10;;;;;;;;;;5078070;28;20020;-69
2020/12/14 15:23:59;;;;;;;104.90;42.00;;;;;;;;;;5079062;28;20032;-72
2020/12/14 15:26:25;;;;;;;91.63;37.20;;;;;;;;;;5085570;28;20494;-73
2020/12/14 15:28:51;;;;;;;91.50;37.55;;;;;;;;;;5075059;28;20131;-72
2020/12/14 15:31:16;;;;;;;89.07;35.75;;;;;;;;;;5084119;28;20115;-74
2020/12/14 15:33:42;;;;;;;117.15;45.95;;;;;;;;;;5080476;28;20063;-75
2020/12/14 15:36:14;;;;;;;95.60;36.45;;;;;;;;;;5077508;28;20094;-74
2020/12/14 15:38:40;;;;;;;88.72;32.53;;;;;;;;;;5069647;28;20115;-75
2020/12/14 15:41:05;;;;;;;75.93;29.55;;;;;;;;;;5075455;28;20122;-74
2020/12/14 15:43:31;;;;;;;84.55;37.17;;;;;;;;;;5083444;28;20055;-75
2020/12/14 15:45:56;;;;;;;86.15;36.67;;;;;;;;;;5081683;28;20020;-75
2020/12/14 15:48:22;;;;;;;78.50;31.73;;;;;;;;;;5058359;28;20019;-74
2020/12/14 15:50:48;;;;;;;83.20;33.10;;;;;;;;;;5086634;28;20031;-72
2020/12/14 15:53:13;;;;;;;1999.90;631.15;;;;;;;;;;5076681;28;20004;-74
2020/12/14 15:55:39;;;;;;;92.68;37.72;;;;;;;;;;5080946;28;20027;-63
2020/12/14 15:58:07;;;;;;;68.97;30.27;;;;;;;;;;5082935;28;20016;-63
2020/12/14 16:00:33;;;;;;;84.15;33.22;;;;;;;;;;5074558;28;20020;-63
2020/12/14 16:02:59;;;;;;;67.72;29.27;;;;;;;;;;5086569;28;20496;-64
2020/12/14 16:05:24;;;;;;;70.20;30.17;;;;;;;;;;5077273;28;20106;-62
2020/12/14 16:07:56;;;;;;;70.13;30.38;;;;;;;;;;5078970;28;20416;-63
2020/12/14 16:10:22;;;;;;;73.32;31.23;;;;;;;;;;5085000;28;20107;-63
2020/12/14 16:12:48;;;;;;;99.72;40.50;;;;;;;;;;5055056;28;20078;-63
2020/12/14 16:15:13;;;;;;;100.15;40.67;;;;;;;;;;5084286;28;20427;-63
2020/12/14 16:17:39;;;;;;;84.10;37.15;;;;;;;;;;5079191;28;20027;-64
2020/12/14 16:20:05;;;;;;;85.93;36.88;;;;;;;;;;5076154;28;20445;-64
2020/12/14 16:22:32;;;;;;;89.88;36.92;;;;;;;;;;5085785;28;20027;-64
2020/12/14 16:24:57;;;;;;;89.97;39.53;;;;;;;;;;5074458;28;20096;-65
2020/12/14 16:27:22;;;;;;;93.15;39.15;;;;;;;;;;5086574;28;20062;-65
2020/12/14 16:29:48;;;;;;;97.90;38.80;;;;;;;;;;5084970;28;20024;-65
2020/12/14 16:32:13;;;;;;;104.45;42.85;;;;;;;;;;5080896;28;20531;-65
2020/12/14 16:34:39;;;;;;;122.30;45.42;;;;;;;;;;5090958;28;20020;-65
2020/12/14 16:37:05;;;;;;;110.78;42.90;;;;;;;;;;5078901;28;20387;-65
2020/12/14 16:39:30;;;;;;;103.65;40.60;;;;;;;;;;5095645;28;20040;-64
